Tiempo atmosférico en la estación meteorológica de Cuéllar, Segovia (795 m.)



Fecha
DESCASC
Temp. máxima en grados centígrados (hora)
DESCASC
Temp. mínima en grados centígrados (hora)
DESCASC
Temp. media en grados centígrados
DESCASC
Racha de viento máxima en m/sg (hora)
DESCASC
Velocidad máxima media en intervalos de 10 minutos(hora)
DESCASC
Precipitaciones diarias en mm
DESCASC
Precipitaciones de 00:00 a 06:00 en mm
DESCASC
Precipitaciones de 06:00 a 12:00 en mm
DESCASC
Precipitaciones de 12:00 a 18:00 en mm
DESCASC
Precipitaciones de 18:00 a 24:00 en mm
DESCASC
15-08-2019 32.6 (16:30) 11.3 (07:30) 21.9 11.94 (19:00) 5.28 (21:20) 0 0 0 0 0
14-08-2019 32 (18:50) 4.2 (00:00) 18.1 7.22 (16:20) 4.17 (16:20) 0 0 0 0 0
13-08-2019 28.3 (18:30) 9.4 (00:00) 18.8 9.17 (00:50) 6.67 (00:40) 0 0 0 0 0
12-08-2019 25.2 (17:50) 2.2 (00:00) 13.7 10.28 (18:40) 6.94 (23:59) 0 0 0 0 0
11-08-2019 24.6 (17:20) 11.8 (00:00) 18.2 10 (16:30) 5.56 (16:30) 0.4 0.4 0 0 0
10-08-2019 29.1 (18:10) 8.5 (00:00) 18.8 8.06 (18:40) 4.72 (18:40) 0.2 0 0.2 0 0
09-08-2019 26.7 (12:00) 11.5 (00:00) 19.1 13.61 (16:40) 8.06 (11:10) 1.8 0 0 0 1.8
08-08-2019 33 (18:10) 14.5 (00:00) 23.8 13.61 (18:50) 6.39 (19:40) 0 0 0 0 0
07-08-2019 28.1 (16:00) 13.6 (00:00) 20.9 10.28 (17:00) 5.28 (17:10) 0 0 0 0 0
06-08-2019 33.4 (17:10) 8.9 (00:00) 21.2 10 (22:50) 6.11 (22:50) 0 0 0 0 0
05-08-2019 34.5 (16:20) 9.2 (00:00) 21.8 9.17 (18:40) 4.72 (15:00) 0 0 0 0 0
04-08-2019 34.5 (17:00) 9.2 (00:00) 21.8 8.61 (19:00) 4.72 (19:00) 0 0 0 0 0
03-08-2019 35.2 (18:50) 9.5 (00:00) 22.4 8.61 (13:50) 5 (15:30) 0 0 0 0 0
02-08-2019 34.9 (18:50) 11.1 (00:00) 23 7.78 (16:00) 4.72 (04:00) 0 0 0 0 0
01-08-2019 31.9 (17:40) 12.1 (00:00) 22 8.61 (22:50) 6.39 (22:50) 0 0 0 0 0
31-07-2019 33.6 (18:10) 11.6 (00:00) 22.6 11.67 (20:20) 8.33 (20:20) 0 0 0 0 0
30-07-2019 27.2 (18:50) 3.2 (00:00) 15.2 8.61 (20:50) 5.83 (20:50) 0 0 0 0 0
29-07-2019 28.3 (17:40) 4.4 (00:00) 16.3 16.11 (16:00) 6.39 (17:50) 0 0 0 0 0
28-07-2019 28.7 (20:00) 6.5 (00:00) 17.6 7.5 (18:00) 4.72 (04:30) 0 0 0 0 0
27-07-2019 24.2 (17:30) 10.4 (00:00) 17.3 13.61 (20:30) 7.78 (21:00) 0 0 0 0 0
26-07-2019 27.9 (17:40) 15.9 (00:00) 21.9 9.17 (18:20) 5 (19:00) 0.2 0.2 0 0 0
25-07-2019 35.3 (15:50) 12.4 (00:00) 23.8 12.5 (16:50) 6.67 (16:50) 0 0 0 0 0
24-07-2019 36.4 (18:20) 13.4 (00:00) 24.9 15.83 (15:40) 6.94 (15:20) 0 0 0 0 0
23-07-2019 36.3 (18:50) 15.8 (00:00) 26 10.56 (18:10) 6.39 (11:00) 0.8 0 0.2 0 0.6
22-07-2019 38.5 (14:40) 15.8 (00:00) 27.2 16.39 (17:40) 7.5 (17:20) 1 0 0 0.8 0.2
21-07-2019 37.3 (18:30) 12.5 (00:00) 24.9 8.06 (19:20) 5 (19:10) 0 0 0 0 0
20-07-2019 34.9 (16:10) 10.4 (00:00) 22.7 10.56 (18:10) 5.28 (17:30) 0 0 0 0 0
19-07-2019 35.7 (16:20) 11.1 (00:00) 23.4 8.89 (14:40) 5 (14:40) 0 0 0 0 0

Gráficas

Temp. máximas Temp. mínimas Temp. medias Precipitaciones Rachas de viento máximas Velocidades máximas media en intervalos de 10 minutos

Datos horarios

Fecha y hora oficial Temperatura (ºC) Velocidad del viento (km/h) Dirección del viento Racha (km/h) Dirección de racha Precipitación (mm) Presión (hPa) Tendencia (hPa) Humedad (%)
2019-08-17 23:00:00 17.4 3 Sudeste 8 Sudoeste 0 -- -- 42
2019-08-17 22:00:00 25.2 5 Oeste 10 Oeste 0 -- -- 31
2019-08-17 21:00:00 30.8 6 Oeste 22 Oeste 0 -- -- 22
2019-08-17 20:00:00 33.6 13 Oeste 30 Oeste 0 -- -- 18
2019-08-17 19:00:00 34.5 17 Oeste 30 Oeste 0 -- -- 18
2019-08-17 18:00:00 35 14 Oeste 34 Sudoeste 0 -- -- 21
2019-08-17 17:00:00 34.6 17 Oeste 32 Oeste 0 -- -- 22
2019-08-17 16:00:00 34.5 9 Sudoeste 32 Oeste 0 -- -- 24
2019-08-17 15:00:00 33.1 15 Oeste 31 Sudoeste 0 -- -- 25
2019-08-17 14:00:00 32.2 9 Oeste 21 Oeste 0 -- -- 28
2019-08-17 13:00:00 30.4 10 Noroeste 16 Noroeste 0 -- -- 31
2019-08-17 12:00:00 28.6 7 Noroeste 14 Oeste 0 -- -- 34
2019-08-17 11:00:00 27.6 3 Oeste 9 Noroeste 0 -- -- 36
2019-08-17 10:00:00 22.3 2 Sur 8 Este 0 -- -- 44
2019-08-17 09:00:00 16.2 5 Este 7 Este 0 -- -- 53
2019-08-17 08:00:00 8.6 3 Este 6 Este 0 -- -- 76
2019-08-17 07:00:00 7.1 4 Sudeste 5 Sudeste 0 -- -- 77
2019-08-17 06:00:00 8 0 Calma 3 Sudoeste 0 -- -- 78
2019-08-17 05:00:00 8.9 0 Calma 4 Sudeste 0 -- -- 75
2019-08-17 04:00:00 9.6 0 Calma 5 Sudeste 0 -- -- 73
2019-08-17 03:00:00 10.8 2 Sudeste 5 Este 0 -- -- 72
2019-08-17 02:00:00 11.6 4 Sudeste 5 Este 0 -- -- 69
2019-08-17 01:00:00 13.4 0 Calma 4 Sudeste 0 -- -- 61
2019-08-17 00:00:00 15.4 0 Calma 5 Sudeste 0 -- -- 55
2019-08-16 23:00:00 17 3 Sudeste 8 Sudeste 0 -- -- 56
2019-08-16 22:00:00 21.4 3 Sudoeste 10 Noroeste 0 -- -- 44
2019-08-16 21:00:00 29.1 7 Noroeste 23 Oeste 0 -- -- 29
2019-08-16 20:00:00 32.3 13 Oeste 28 Oeste 0 -- -- 26
2019-08-16 19:00:00 33.6 13 Oeste 33 Oeste 0 -- -- 24
2019-08-16 18:00:00 33.8 15 Oeste 30 Noroeste 0 -- -- 25
2019-08-16 17:00:00 34.1 13 Oeste 38 Sudoeste 0 -- -- 25
2019-08-16 16:00:00 33 13 Oeste 32 Sudoeste 0 -- -- 25
2019-08-16 15:00:00 32.3 12 Sudoeste 25 Sudoeste 0 -- -- 28
2019-08-16 14:00:00 31.3 11 Oeste 24 Sudoeste 0 -- -- 32
2019-08-16 13:00:00 30.3 8 Oeste 18 Sudoeste 0 -- -- 35
2019-08-16 12:00:00 28 7 Sudoeste 16 Sudoeste 0 -- -- 39
2019-08-16 11:00:00 25.9 6 Sudoeste 12 Sudoeste 0 -- -- 42
2019-08-16 10:00:00 22.8 2 Sudoeste 9 Nordeste 0 -- -- 48
2019-08-16 09:00:00 17.7 4 Este 6 Este 0 -- -- 61
2019-08-16 08:00:00 12 0 Calma 9 Nordeste 0 -- -- 78
2019-08-16 07:00:00 10.3 6 Este 8 Este 0 -- -- 85
2019-08-16 06:00:00 10.7 4 Este 6 Este 0 -- -- 82
2019-08-16 05:00:00 13.9 0 Calma 15 Nordeste 0 -- -- 72
2019-08-16 04:00:00 16.7 9 Nordeste 16 Nordeste 0 -- -- 67
2019-08-16 03:00:00 17.9 10 Nordeste 16 Nordeste 0 -- -- 61
2019-08-16 02:00:00 17.6 6 Nordeste 13 Nordeste 0 -- -- 61
2019-08-16 01:00:00 18.4 12 Este 15 Nordeste 0 -- -- 58
2019-08-16 00:00:00 19.6 10 Nordeste 17 Nordeste 0 -- -- 53
2019-08-15 23:00:00 22.5 13 Nordeste 25 Nordeste 0 -- -- 47
2019-08-15 22:00:00 24.4 18 Nordeste 28 Nordeste 0 -- -- 43
2019-08-15 21:00:00 28 16 Norte 25 Nordeste 0 -- -- 37
2019-08-15 20:00:00 31 12 Noroeste 22 Norte 0 -- -- 31
2019-08-15 19:00:00 32.1 14 Noroeste 43 Noroeste 0 -- -- 29
2019-08-15 18:00:00 32.6 5 Noroeste 22 Oeste 0 -- -- 28
2019-08-15 17:00:00 32 9 Oeste 33 Sur 0 -- -- 28
2019-08-15 16:00:00 31 6 Oeste 20 Sur 0 -- -- 30
2019-08-15 15:00:00 30.3 7 Noroeste 20 Norte 0 -- -- 31
2019-08-15 14:00:00 29.9 5 Oeste 17 Nordeste 0 -- -- 31
2019-08-15 13:00:00 28.6 10 Nordeste 22 Norte 0 -- -- 31
2019-08-15 12:00:00 27.8 5 Noroeste 10 Norte 0 -- -- 38
2019-08-15 11:00:00 25.6 3 Sur 8 Sur 0 -- -- 44
2019-08-15 10:00:00 23.2 3 Este 12 Norte 0 -- -- 49
2019-08-15 09:00:00 19.4 2 Norte 5 Sudeste 0 -- -- 58
2019-08-15 08:00:00 13.2 3 Sudeste 12 Sudeste 0 -- -- 70
2019-08-15 07:00:00 12.4 8 Este 13 Nordeste 0 -- -- 76
2019-08-15 06:00:00 14.9 4 Oeste 18 Norte 0 -- -- 72
2019-08-15 05:00:00 12.7 3 Oeste 8 Nordeste 0 -- -- 65
2019-08-15 04:00:00 13.5 3 Nordeste 16 Oeste 0 -- -- 59
2019-08-15 03:00:00 12.9 6 Este 11 Nordeste 0 -- -- 62
2019-08-15 02:00:00 15.5 2 Este 20 Sudoeste 0 -- -- 55
2019-08-15 01:00:00 14.4 4 Este 6 Este 0 -- -- 58
2019-08-15 00:00:00 14.9 4 Este 5 Este 0 -- -- 57
2019-08-14 23:00:00 17.2 0 Calma 4 Sudeste 0 -- -- 50
2019-08-14 22:00:00 20.7 0 Calma 7 Oeste 0 -- -- 43
2019-08-14 21:00:00 28.5 6 Oeste 15 Oeste 0 -- -- 29
2019-08-14 20:00:00 30.5 10 Oeste 17 Oeste 0 -- -- 26
2019-08-14 19:00:00 31.6 10 Oeste 22 Oeste 0 -- -- 21
2019-08-14 18:00:00 31.3 10 Noroeste 22 Noroeste 0 -- -- 22
2019-08-14 17:00:00 31.4 13 Noroeste 26 Oeste 0 -- -- 22
2019-08-14 16:00:00 30.4 13 Oeste 25 Oeste 0 -- -- 22
2019-08-14 15:00:00 29.6 12 Noroeste 23 Norte 0 -- -- 22
2019-08-14 14:00:00 29 6 Sudoeste 21 Noroeste 0 -- -- 23
2019-08-14 13:00:00 27.3 12 Oeste 20 Oeste 0 -- -- 24
2019-08-14 12:00:00 26.5 8 Oeste 17 Sudoeste 0 -- -- 24
2019-08-14 11:00:00 23.2 6 Noroeste 9 Noroeste 0 -- -- 29
2019-08-14 10:00:00 20.7 3 Norte 7 Sudeste 0 -- -- 33
2019-08-14 09:00:00 14.6 4 Este 6 Este 0 -- -- 46
2019-08-14 08:00:00 6 4 Este 5 Este 0 -- -- 70
2019-08-14 07:00:00 5 0 Calma 6 Este 0 -- -- 71
2019-08-14 06:00:00 5.8 6 Este 8 Este 0 -- -- 68
2019-08-14 05:00:00 5.7 4 Sudeste 5 Sudeste 0 -- -- 67
2019-08-14 04:00:00 6.4 3 Sudeste 8 Sudeste 0 -- -- 63
2019-08-14 03:00:00 7.3 7 Sudeste 9 Este 0 -- -- 63
2019-08-14 02:00:00 9.1 5 Este 10 Este 0 -- -- 57
2019-08-14 01:00:00 9.1 6 Este 10 Este 0 -- -- 51
2019-08-14 00:00:00 15.4 6 Este 17 Norte 0 -- -- 35
2019-08-13 23:00:00 18.5 15 Norte 18 Norte 0 -- -- 29
2019-08-13 22:00:00 19.2 14 Norte 16 Norte 0 -- -- 28
2019-08-13 21:00:00 22.9 11 Norte 17 Norte 0 -- -- 28
2019-08-13 20:00:00 26.3 13 Noroeste 27 Norte 0 -- -- 21
2019-08-13 19:00:00 27.3 10 Noroeste 21 Noroeste 0 -- -- 22
2019-08-13 18:00:00 27.4 14 Norte 24 Norte 0 -- -- 22
2019-08-13 17:00:00 27.2 8 Norte 25 Noroeste 0 -- -- 23
2019-08-13 16:00:00 26 9 Sudoeste 21 Norte 0 -- -- 28
2019-08-13 15:00:00 26 9 Norte 23 Nordeste 0 -- -- 27
2019-08-13 14:00:00 24.5 6 Norte 21 Noroeste 0 -- -- 30
2019-08-13 13:00:00 22.7 10 Noroeste 25 Norte 0 -- -- 33
2019-08-13 12:00:00 22.5 10 Nordeste 16 Nordeste 0 -- -- 35
2019-08-13 11:00:00 20.4 6 Nordeste 14 Este 0 -- -- 42
2019-08-13 10:00:00 17.1 8 Este 16 Nordeste 0 -- -- 53
2019-08-13 09:00:00 14 6 Nordeste 18 Norte 0 -- -- 63
2019-08-13 08:00:00 10.5 14 Norte 22 Norte 0 -- -- 74
2019-08-13 07:00:00 9.7 17 Norte 21 Norte 0 -- -- 78
2019-08-13 06:00:00 10.1 13 Norte 23 Norte 0 -- -- 78
2019-08-13 05:00:00 11.3 18 Norte 24 Nordeste 0 -- -- 74
2019-08-13 04:00:00 10.3 13 Nordeste 22 Norte 0 -- -- 78
2019-08-13 03:00:00 11.8 14 Nordeste 29 Nordeste 0 -- -- 71
2019-08-13 02:00:00 12.3 19 Norte 32 Norte 0 -- -- 68
2019-08-13 01:00:00 13.7 23 Norte 33 Norte 0 -- -- 64
2019-08-13 00:00:00 15.2 25 Norte 35 Norte 0 -- -- 59
2019-08-12 23:00:00 16.7 20 Nordeste 33 Nordeste 0 -- -- 51
2019-08-12 22:00:00 18 18 Nordeste 29 Nordeste 0 -- -- 43
2019-08-12 21:00:00 19.1 18 Norte 28 Nordeste 0 -- -- 37
2019-08-12 20:00:00 20.7 19 Norte 29 Norte 0 -- -- 32
2019-08-12 19:00:00 23.5 17 Nordeste 37 Norte 0 -- -- 27
2019-08-12 18:00:00 24.5 12 Norte 24 Nordeste 0 -- -- 27
2019-08-12 17:00:00 24.6 11 Norte 27 Nordeste 0 -- -- 28
2019-08-12 16:00:00 23.2 13 Norte 30 Norte 0 -- -- 29
2019-08-12 15:00:00 22.8 14 Norte 34 Norte 0 -- -- 32
2019-08-12 14:00:00 21.6 13 Norte 24 Noroeste 0 -- -- 35
2019-08-12 13:00:00 21.2 10 Nordeste 28 Norte 0 -- -- 38
2019-08-12 12:00:00 19.1 13 Nordeste 27 Norte 0 -- -- 43
2019-08-12 11:00:00 18.1 16 Norte 28 Norte 0 -- -- 48
2019-08-12 10:00:00 16.3 14 Norte 24 Nordeste 0 -- -- 54
2019-08-12 09:00:00 10.9 0 Calma 3 Sudeste 0 -- -- 76
2019-08-12 08:00:00 3.8 0 Calma 4 Este 0 -- -- 94
2019-08-12 07:00:00 3.8 0 Calma 4 Sudeste 0 -- -- 97
2019-08-12 06:00:00 3.1 0 Calma 3 Sur 0 -- -- 94
2019-08-12 05:00:00 5.4 0 Calma 3 Oeste 0 -- -- 94
2019-08-12 04:00:00 7 0 Calma 4 Sudoeste 0 -- -- 88
2019-08-12 03:00:00 9.1 0 Calma 6 Sur 0 -- -- 82
2019-08-12 02:00:00 12 5 Norte 30 Norte 0 -- -- 77
2019-08-12 01:00:00 13.4 19 Noroeste 26 Noroeste 0 -- -- 76
2019-08-12 00:00:00 15.4 12 Oeste 28 Oeste 0 -- -- 56
2019-08-11 23:00:00 17.4 17 Noroeste 30 Oeste 0 -- -- 45
2019-08-11 22:00:00 16.6 4 Oeste 14 Oeste 0 -- -- 40
2019-08-11 21:00:00 21.2 12 Oeste 26 Oeste 0 -- -- 30
2019-08-11 20:00:00 23.3 13 Oeste 31 Oeste 0 -- -- 29
2019-08-11 19:00:00 23.8 19 Oeste 30 Oeste 0 -- -- 33
2019-08-11 18:00:00 23.8 15 Noroeste 30 Oeste 0 -- -- 34
2019-08-11 17:00:00 24.2 14 Oeste 36 Oeste 0 -- -- 38
2019-08-11 16:00:00 23.3 15 Oeste 32 Oeste 0 -- -- 40
2019-08-11 15:00:00 24.1 11 Sudoeste 33 Oeste 0 -- -- 43
2019-08-11 14:00:00 22.9 18 Oeste 32 Oeste 0 -- -- 51
2019-08-11 13:00:00 23.1 11 Sudoeste 23 Oeste 0 -- -- 46
2019-08-11 12:00:00 21.5 12 Oeste 25 Oeste 0 -- -- 50
2019-08-11 11:00:00 22 7 Oeste 13 Oeste 0 -- -- 52
2019-08-11 10:00:00 20.4 3 Este 7 Este 0 -- -- 62
2019-08-11 09:00:00 16.9 4 Este 10 Nordeste 0 -- -- 80
2019-08-11 08:00:00 12.2 4 Nordeste 10 Este 0 -- -- 92
2019-08-11 07:00:00 13 9 Este 15 Sudeste 0 -- -- 92
2019-08-11 06:00:00 14 12 Este 18 Noroeste 0 -- -- 90
2019-08-11 05:00:00 15.2 8 Noroeste 24 Noroeste 0 -- -- 80
2019-08-11 04:00:00 15.2 0 Calma 12 Nordeste 0 -- -- 90
2019-08-11 03:00:00 16.3 9 Norte 19 Norte 0.2 -- -- 81
2019-08-11 02:00:00 15.9 7 Este 10 Norte 0 -- -- 89
2019-08-11 01:00:00 17.2 2 Norte 16 Noroeste 0.2 -- -- 76
2019-08-11 00:00:00 19.7 15 Noroeste 18 Noroeste 0 -- -- 52
2019-08-10 23:00:00 21.6 8 Noroeste 18 Noroeste 0 -- -- 44
2019-08-10 22:00:00 23.1 11 Noroeste 14 Noroeste 0 -- -- 36
2019-08-10 21:00:00 25.3 8 Oeste 21 Oeste 0 -- -- 31
2019-08-10 20:00:00 27.9 13 Oeste 23 Oeste 0 -- -- 27
2019-08-10 19:00:00 28.7 9 Oeste 29 Oeste 0 -- -- 25
2019-08-10 18:00:00 28.8 15 Oeste 26 Noroeste 0 -- -- 26
2019-08-10 17:00:00 28.2 13 Oeste 26 Oeste 0 -- -- 31
2019-08-10 16:00:00 26.7 12 Oeste 24 Oeste 0 -- -- 33
2019-08-10 15:00:00 26 10 Oeste 18 Sudoeste 0 -- -- 36
2019-08-10 14:00:00 24.1 7 Noroeste 16 Oeste 0 -- -- 47
2019-08-10 13:00:00 22.2 8 Noroeste 14 Noroeste 0 -- -- 53
2019-08-10 12:00:00 21.2 4 Noroeste 10 Noroeste 0 -- -- 55
2019-08-10 11:00:00 18 9 Oeste 15 Oeste 0 -- -- 70
2019-08-10 10:00:00 16.1 4 Sudoeste 8 Sudoeste 0 -- -- 90
2019-08-10 09:00:00 13.3 3 Oeste 6 Oeste 0 -- -- 96
2019-08-10 08:00:00 11.4 2 Este 5 Este 0.2 -- -- 99
2019-08-10 07:00:00 11 2 Este 3 Este 0 -- -- 99
2019-08-10 06:00:00 11.6 0 Calma 4 Oeste 0 -- -- 99
2019-08-10 05:00:00 11.2 2 Este 3 Este 0 -- -- 99
2019-08-10 04:00:00 10.5 0 Calma 5 Este 0 -- -- 99
2019-08-10 03:00:00 8.5 0 Calma 5 Sudeste 0 -- -- 99
2019-08-10 02:00:00 9.8 0 Calma 5 Sudeste 0 -- -- 98
2019-08-10 01:00:00 11.1 0 Calma 5 Sudeste 0 -- -- 99
2019-08-10 00:00:00 11.5 0 Calma 5 Nordeste 0 -- -- 98
2019-08-09 23:00:00 12.9 2 Nordeste 4 Este 0 -- -- 97
2019-08-09 22:00:00 14.2 3 Nordeste 9 Sudeste 0 -- -- 95
2019-08-09 21:00:00 15.7 6 Sudeste 15 Sudeste 0.2 -- -- 91
2019-08-09 20:00:00 14.8 10 Sur 37 Oeste 0.8 -- -- 91
2019-08-09 19:00:00 17.4 17 Sudoeste 48 Sudoeste 0.8 -- -- 89
2019-08-09 18:00:00 24.6 23 Oeste 43 Sudoeste 0 -- -- 48
2019-08-09 17:00:00 25.3 23 Oeste 49 Oeste 0 -- -- 56
2019-08-09 16:00:00 25.4 19 Oeste 42 Oeste 0 -- -- 59
2019-08-09 15:00:00 26.4 22 Oeste 46 Oeste 0 -- -- 57
2019-08-09 14:00:00 25.6 22 Oeste 40 Oeste 0 -- -- 59
2019-08-09 13:00:00 24.9 20 Oeste 32 Oeste 0 -- -- 64
2019-08-09 12:00:00 26.7 23 Sudoeste 45 Sudoeste 0 -- -- 56
2019-08-09 11:00:00 26 20 Sudoeste 43 Sudoeste 0 -- -- 57
2019-08-09 10:00:00 22.8 15 Sudoeste 30 Sudoeste 0 -- -- 65
2019-08-09 09:00:00 21.7 6 Oeste 12 Oeste 0 -- -- 64
2019-08-09 08:00:00 14.7 4 Sudeste 6 Sudeste 0 -- -- 88
2019-08-09 07:00:00 13.4 3 Nordeste 7 Este 0 -- -- 91
2019-08-09 06:00:00 12.6 5 Este 6 Este 0 -- -- 90
2019-08-09 05:00:00 13.9 0 Calma 6 Sudeste 0 -- -- 84
2019-08-09 04:00:00 14.1 0 Calma 5 Este 0 -- -- 82
2019-08-09 03:00:00 15.6 0 Calma 4 Este 0 -- -- 77
2019-08-09 02:00:00 17.4 3 Este 6 Sudoeste 0 -- -- 72
2019-08-09 01:00:00 22.6 6 Sur 17 Oeste 0 -- -- 58
2019-08-09 00:00:00 24.2 9 Sudoeste 24 Sudoeste 0 -- -- 53
2019-08-08 23:00:00 25 10 Sudoeste 23 Sudoeste 0 -- -- 48
2019-08-08 22:00:00 26 12 Oeste 30 Oeste 0 -- -- 45
2019-08-08 21:00:00 28.8 14 Sudoeste 41 Oeste 0 -- -- 38
2019-08-08 20:00:00 29.8 20 Oeste 40 Oeste 0 -- -- 35
2019-08-08 19:00:00 32.2 20 Oeste 49 Oeste 0 -- -- 31
2019-08-08 18:00:00 32 13 Sur 29 Sudoeste 0 -- -- 36
2019-08-08 17:00:00 30 12 Sur 31 Sudoeste 0 -- -- 40
2019-08-08 16:00:00 30.7 10 Sudoeste 31 Sudoeste 0 -- -- 39
2019-08-08 15:00:00 30 19 Sudoeste 35 Oeste 0 -- -- 40
2019-08-08 14:00:00 29.7 15 Sudoeste 31 Sudoeste 0 -- -- 42
2019-08-08 13:00:00 28 12 Oeste 29 Oeste 0 -- -- 47
2019-08-08 12:00:00 25.6 14 Sudoeste 36 Oeste 0 -- -- 54
2019-08-08 11:00:00 24.2 11 Sudoeste 29 Sur 0 -- -- 59
2019-08-08 10:00:00 23.4 12 Sudoeste 22 Sudoeste 0 -- -- 57
2019-08-08 09:00:00 23.3 2 Sur 7 Sudoeste 0 -- -- 54
2019-08-08 08:00:00 15.1 5 Nordeste 5 Este 0 -- -- 76
2019-08-08 07:00:00 16.3 0 Calma 5 Este 0 -- -- 77
2019-08-08 06:00:00 15.3 4 Este 5 Nordeste 0 -- -- 76
2019-08-08 05:00:00 15.7 3 Sudeste 4 Sudeste 0 -- -- 78
2019-08-08 04:00:00 15.5 0 Calma 2 Este 0 -- -- 78
2019-08-08 03:00:00 15.1 0 Calma 2 Oeste 0 -- -- 74
2019-08-08 02:00:00 15.5 0 Calma 3 Sudeste 0 -- -- 74
2019-08-08 01:00:00 15.1 0 Calma 5 Nordeste 0 -- -- 74
2019-08-08 00:00:00 18.8 0 Calma 8 Nordeste 0 -- -- 64
2019-08-07 23:00:00 20.8 4 Sudoeste 9 Oeste 0 -- -- 59
2019-08-07 22:00:00 22.5 4 Sudoeste 17 Sudoeste 0 -- -- 50
2019-08-07 21:00:00 24.2 8 Sudoeste 23 Oeste 0 -- -- 44
2019-08-07 20:00:00 25 11 Sudoeste 25 Sur 0 -- -- 45
2019-08-07 19:00:00 24.9 13 Sur 28 Sur 0 -- -- 45
2019-08-07 18:00:00 24.3 16 Sur 32 Sur 0 -- -- 48
2019-08-07 17:00:00 25.5 18 Sudoeste 37 Sur 0 -- -- 44
2019-08-07 16:00:00 28.1 11 Sudoeste 28 Sur 0 -- -- 37
2019-08-07 15:00:00 26.4 15 Sur 26 Sur 0 -- -- 46
2019-08-07 14:00:00 26.2 10 Sudoeste 24 Sudoeste 0 -- -- 45
2019-08-07 13:00:00 26.2 9 Sur 19 Oeste 0 -- -- 46
2019-08-07 12:00:00 26 5 Oeste 22 Oeste 0 -- -- 50
2019-08-07 11:00:00 25.1 9 Oeste 18 Oeste 0 -- -- 52
2019-08-07 10:00:00 22.6 2 Sur 4 Sur 0 -- -- 63
2019-08-07 09:00:00 19.7 2 Nordeste 8 Sudeste 0 -- -- 71
2019-08-07 08:00:00 13.9 2 Sur 5 Noroeste 0 -- -- 87
2019-08-07 07:00:00 15 3 Oeste 5 Sudeste 0 -- -- 86
2019-08-07 06:00:00 16 3 Sudeste 4 Sudeste 0 -- -- 82
2019-08-07 05:00:00 17.4 3 Este 6 Sudeste 0 -- -- 78
2019-08-07 04:00:00 18.3 3 Nordeste 9 Norte 0 -- -- 74
2019-08-07 03:00:00 19.1 4 Oeste 10 Oeste 0 -- -- 73
2019-08-07 02:00:00 20.4 6 Noroeste 27 Nordeste 0 -- -- 70
2019-08-07 01:00:00 22.7 6 Norte 10 Oeste 0 -- -- 51
2019-08-07 00:00:00 23.7 5 Oeste 27 Noroeste 0 -- -- 44
2019-08-06 23:00:00 25.4 18 Noroeste 36 Noroeste 0 -- -- 37
2019-08-06 22:00:00 26.2 6 Noroeste 16 Noroeste 0 -- -- 37
2019-08-06 21:00:00 28.4 12 Noroeste 20 Noroeste 0 -- -- 36
2019-08-06 20:00:00 30.1 10 Oeste 23 Oeste 0 -- -- 32
2019-08-06 19:00:00 31.1 14 Noroeste 26 Oeste 0 -- -- 29
2019-08-06 18:00:00 32.1 14 Oeste 33 Oeste 0 -- -- 27
2019-08-06 17:00:00 32.8 10 Oeste 31 Oeste 0 -- -- 25
2019-08-06 16:00:00 32 15 Oeste 26 Sudoeste 0 -- -- 25
2019-08-06 15:00:00 32.6 11 Sudoeste 26 Oeste 0 -- -- 28
2019-08-06 14:00:00 31.2 9 Oeste 23 Sudoeste 0 -- -- 32
2019-08-06 13:00:00 29.2 11 Noroeste 19 Noroeste 0 -- -- 39
2019-08-06 12:00:00 28.5 6 Sudoeste 15 Oeste 0 -- -- 42
2019-08-06 11:00:00 24.8 6 Sudoeste 14 Oeste 0 -- -- 49
2019-08-06 10:00:00 23.4 6 Sudoeste 12 Sudoeste 0 -- -- 50
2019-08-06 09:00:00 18.3 7 Este 9 Este 0 -- -- 55
2019-08-06 08:00:00 11.2 2 Este 4 Este 0 -- -- 70
2019-08-06 07:00:00 8.9 0 Calma 2 Este 0 -- -- 73
2019-08-06 06:00:00 9.9 0 Calma 3 Este 0 -- -- 74
2019-08-06 05:00:00 11.1 0 Calma 5 Sur 0 -- -- 71
2019-08-06 04:00:00 12.5 2 Este 5 Nordeste 0 -- -- 65
2019-08-06 03:00:00 13.4 3 Este 6 Este 0 -- -- 64
2019-08-06 02:00:00 14.8 5 Este 8 Este 0 -- -- 57
2019-08-06 01:00:00 16.9 4 Sur 13 Nordeste 0 -- -- 55
2019-08-06 00:00:00 18 2 Oeste 10 Oeste 0 -- -- 48
2019-08-05 23:00:00 22.8 5 Oeste 10 Noroeste 0 -- -- 40
2019-08-05 22:00:00 26.2 9 Noroeste 17 Oeste 0 -- -- 32
2019-08-05 21:00:00 30.1 13 Oeste 27 Oeste 0 -- -- 27
2019-08-05 20:00:00 33 14 Oeste 28 Oeste 0 -- -- 22
2019-08-05 19:00:00 34.2 12 Oeste 33 Noroeste 0 -- -- 21
2019-08-05 18:00:00 34.5 14 Oeste 29 Oeste 0 -- -- 21
2019-08-05 17:00:00 34.5 14 Oeste 27 Oeste 0 -- -- 19
2019-08-05 16:00:00 33.8 9 Oeste 27 Oeste 0 -- -- 19
2019-08-05 15:00:00 33 17 Oeste 31 Oeste 0 -- -- 17
2019-08-05 14:00:00 32 10 Sur 26 Sur 0 -- -- 28
2019-08-05 13:00:00 31.1 5 Norte 16 Oeste 0 -- -- 32
2019-08-05 12:00:00 28.5 6 Oeste 15 Oeste 0 -- -- 38
2019-08-05 11:00:00 26.3 4 Sur 9 Sur 0 -- -- 43
2019-08-05 10:00:00 23.2 3 Sudoeste 9 Sudoeste 0 -- -- 48
2019-08-05 09:00:00 19.2 2 Sudeste 5 Nordeste 0 -- -- 56
2019-08-05 08:00:00 11.2 3 Sudeste 6 Este 0 -- -- 77
2019-08-05 07:00:00 9.6 3 Este 9 Este 0 -- -- 77
2019-08-05 06:00:00 10.4 3 Este -- -- 0 -- -- 79
2019-08-05 05:00:00 12.2 5 Este 9 Nordeste 0 -- -- 78
2019-08-05 04:00:00 13 2 Nordeste 9 Este 0 -- -- 73
2019-08-05 03:00:00 18.1 8 Nordeste 15 Nordeste 0 -- -- 69
2019-08-05 02:00:00 15 6 Nordeste 14 Este 0 -- -- 59
2019-08-05 01:00:00 16.5 4 Sudeste 6 Sudoeste 0 -- -- 55
2019-08-05 00:00:00 21.2 0 Calma 9 Oeste 0 -- -- 44
2019-08-04 23:00:00 21.8 4 Oeste 10 Noroeste 0 -- -- 47
2019-08-04 22:00:00 26 6 Oeste 12 Oeste 0 -- -- 34
2019-08-04 21:00:00 31.1 7 Oeste 24 Noroeste 0 -- -- 24
2019-08-04 20:00:00 33 12 Oeste 27 Oeste 0 -- -- 24
2019-08-04 19:00:00 33.3 17 Oeste 31 Oeste 0 -- -- 24
2019-08-04 18:00:00 34.3 12 Sudoeste 26 Sudoeste 0 -- -- 22
2019-08-04 17:00:00 34.5 13 Oeste 30 Oeste 0 -- -- 22
2019-08-04 16:00:00 33.5 14 Sudoeste 26 Sur 0 -- -- 21
2019-08-04 15:00:00 32.4 5 Sudoeste 27 Oeste 0 -- -- 29
2019-08-04 14:00:00 31.7 8 Sur 22 Sur 0 -- -- 30
2019-08-04 13:00:00 30.1 7 Noroeste 14 Noroeste 0 -- -- 39
2019-08-04 12:00:00 27.6 7 Oeste 15 Sudoeste 0 -- -- 46
2019-08-04 11:00:00 25.5 6 Sudoeste 14 Oeste 0 -- -- 50
2019-08-04 10:00:00 23.3 6 Sudoeste 11 Oeste 0 -- -- 54
2019-08-04 09:00:00 21.1 0 Calma 4 Sudeste 0 -- -- 50
2019-08-04 08:00:00 12.5 0 Calma 4 Oeste 0 -- -- 60
2019-08-04 07:00:00 9.9 3 Este 8 Este 0 -- -- 68
2019-08-04 06:00:00 9.7 3 Este 5 Sudeste 0 -- -- 63
2019-08-04 05:00:00 10.9 0 Calma 4 Sur 0 -- -- 61
2019-08-04 04:00:00 11.6 0 Calma 6 Nordeste 0 -- -- 61
2019-08-04 03:00:00 12.1 2 Este 5 Este 0 -- -- 59
2019-08-04 02:00:00 14.4 0 Calma 6 Nordeste 0 -- -- 50
2019-08-04 01:00:00 14.9 4 Este 6 Este 0 -- -- 47
2019-08-04 00:00:00 16.6 0 Calma 6 Este 0 -- -- 46
2019-08-03 23:00:00 18.8 3 Este 5 Sur 0 -- -- 38
2019-08-03 22:00:00 24.9 4 Oeste 10 Oeste 0 -- -- 31
2019-08-03 21:00:00 31.5 8 Oeste 21 Oeste 0 -- -- 19
2019-08-03 20:00:00 33.7 12 Oeste 25 Noroeste 0 -- -- 19
2019-08-03 19:00:00 34.8 14 Oeste 30 Sudoeste 0 -- -- 17
2019-08-03 18:00:00 35.1 11 Noroeste 29 Sudoeste 0 -- -- 17
2019-08-03 17:00:00 34.7 16 Sudoeste 31 Sudoeste 0 -- -- 15
2019-08-03 16:00:00 34.2 15 Sudoeste 31 Sudoeste 0 -- -- 16
2019-08-03 15:00:00 33.6 16 Oeste 30 Sudoeste 0 -- -- 17
2019-08-03 14:00:00 32.7 17 Oeste 31 Oeste 0 -- -- 19
2019-08-03 13:00:00 32.2 11 Sudoeste 22 Sudoeste 0 -- -- 25
2019-08-03 12:00:00 30 6 Oeste 18 Oeste 0 -- -- 30
2019-08-03 11:00:00 26.7 8 Sudoeste 17 Sudoeste 0 -- -- 33
2019-08-03 10:00:00 25.3 2 Sur 8 Este 0 -- -- 37
2019-08-03 09:00:00 18.8 3 Sudeste 6 Sudeste 0 -- -- 57
2019-08-03 08:00:00 11.5 4 Este 7 Este 0 -- -- 79
2019-08-03 07:00:00 9.9 4 Este 6 Nordeste 0 -- -- 82
2019-08-03 06:00:00 10.9 3 Nordeste 10 Nordeste 0 -- -- 80
2019-08-03 05:00:00 12.7 3 Nordeste 10 Nordeste 0 -- -- 72
2019-08-03 04:00:00 15.5 6 Este 17 Este 0 -- -- 67
2019-08-03 03:00:00 19.1 10 Este 14 Este 0 -- -- 58
2019-08-03 02:00:00 18.4 5 Este 13 Nordeste 0 -- -- 56
2019-08-03 01:00:00 21.4 10 Nordeste 21 Nordeste 0 -- -- 47
2019-08-03 00:00:00 22.3 16 Norte 20 Norte 0 -- -- 41
2019-08-02 23:00:00 23.4 11 Norte 17 Nordeste 0 -- -- 36
2019-08-02 22:00:00 25.3 14 Noroeste 17 Noroeste 0 -- -- 33
2019-08-02 21:00:00 30.3 12 Norte 19 Norte 0 -- -- 26
2019-08-02 20:00:00 33.5 11 Oeste 19 Oeste 0 -- -- 20
2019-08-02 19:00:00 34.3 11 Norte 24 Oeste 0 -- -- 20
2019-08-02 18:00:00 34.8 10 Noroeste 26 Oeste 0 -- -- 20
2019-08-02 17:00:00 34.7 9 Norte 26 Oeste 0 -- -- 21
2019-08-02 16:00:00 32.7 14 Noroeste 28 Noroeste 0 -- -- 24
2019-08-02 15:00:00 32.3 8 Noroeste 20 Nordeste 0 -- -- 25
2019-08-02 14:00:00 32.1 9 Este 18 Este 0 -- -- 26
2019-08-02 13:00:00 30.6 9 Este 16 Nordeste 0 -- -- 33
2019-08-02 12:00:00 28.4 6 Este 13 Norte 0 -- -- 44
2019-08-02 11:00:00 25.8 4 Este 9 Este 0 -- -- 50
2019-08-02 10:00:00 21.9 3 Sudeste 10 Este 0 -- -- 64
2019-08-02 09:00:00 17.3 7 Nordeste 10 Nordeste 0 -- -- 80
2019-08-02 08:00:00 12.9 5 Nordeste 8 Este 0 -- -- 95
2019-08-02 07:00:00 11.5 5 Este 11 Nordeste 0 -- -- 95
2019-08-02 06:00:00 14.4 6 Este 12 Nordeste 0 -- -- 90
2019-08-02 05:00:00 14.3 5 Este 21 Norte 0 -- -- 91
2019-08-02 04:00:00 15.4 17 Norte 23 Norte 0 -- -- 89
2019-08-02 03:00:00 16 16 Norte 22 Norte 0 -- -- 86
2019-08-02 02:00:00 16.8 8 Nordeste 17 Nordeste 0 -- -- 83
2019-08-02 01:00:00 17.5 8 Este 24 Norte 0 -- -- 79
2019-08-02 00:00:00 19.7 17 Norte 26 Norte 0 -- -- 72
2019-08-01 23:00:00 21.7 20 Norte 31 Norte 0 -- -- 64
2019-08-01 22:00:00 23.5 11 Noroeste 14 Noroeste 0 -- -- 29
2019-08-01 21:00:00 27.8 6 Oeste 21 Oeste 0 -- -- 27
2019-08-01 20:00:00 28.8 10 Oeste 26 Noroeste 0 -- -- 26
2019-08-01 19:00:00 31.3 11 Oeste 27 Oeste 0 -- -- 23
2019-08-01 18:00:00 31.4 17 Oeste 29 Oeste 0 -- -- 22
2019-08-01 17:00:00 31.2 13 Sudoeste 28 Oeste 0 -- -- 23
2019-08-01 16:00:00 30.4 12 Oeste 26 Oeste 0 -- -- 27
2019-08-01 15:00:00 29.7 11 Noroeste 25 Oeste 0 -- -- 30
2019-08-01 14:00:00 28.5 14 Oeste 22 Sudoeste 0 -- -- 37
2019-08-01 13:00:00 26.3 13 Sudoeste 24 Sudoeste 0 -- -- 43
2019-08-01 12:00:00 25.2 10 Oeste 23 Sudoeste 0 -- -- 46
2019-08-01 11:00:00 23.6 13 Oeste 22 Oeste 0 -- -- 49
2019-08-01 10:00:00 22 7 Sudoeste 13 Sur 0 -- -- 52
2019-08-01 09:00:00 19.3 2 Oeste 5 Sudoeste 0 -- -- 58
2019-08-01 08:00:00 14.3 2 Oeste 5 Este 0 -- -- 73
2019-08-01 07:00:00 12.2 6 Este 8 Este 0 -- -- 77
2019-08-01 06:00:00 13.7 4 Este 9 Nordeste 0 -- -- 74
2019-08-01 05:00:00 14.8 2 Este 6 Nordeste 0 -- -- 70
2019-08-01 04:00:00 15.9 3 Nordeste 12 Este 0 -- -- 66
2019-08-01 03:00:00 15.9 10 Este 13 Este 0 -- -- 65
2019-08-01 02:00:00 17.7 3 Norte 6 Noroeste 0 -- -- 61
2019-08-01 01:00:00 20.2 4 Sudoeste 22 Norte 0 -- -- 52
2019-08-01 00:00:00 21.6 17 Norte 35 Norte 0 -- -- 47
2019-07-31 23:00:00 22.2 26 Norte 36 Norte 0 -- -- 44
2019-07-31 22:00:00 22.6 26 Norte 38 Norte 0 -- -- 43
2019-07-31 21:00:00 24.9 28 Norte 42 Norte 0 -- -- 40
2019-07-31 20:00:00 27.3 27 Norte 39 Norte 0 -- -- 35
2019-07-31 19:00:00 32.7 11 Sur 23 Sudoeste 0 -- -- 20
2019-07-31 18:00:00 33.2 9 Norte 19 Noroeste 0 -- -- 26
2019-07-31 17:00:00 32.3 6 Norte 23 Noroeste 0 -- -- 27
2019-07-31 16:00:00 31.7 8 Norte 21 Oeste 0 -- -- 28
2019-07-31 15:00:00 29.6 9 Noroeste 16 Norte 0 -- -- 31
2019-07-31 14:00:00 27.9 6 Sudeste 15 Nordeste 0 -- -- 34
2019-07-31 13:00:00 26.4 9 Norte 18 Norte 0 -- -- 35
2019-07-31 12:00:00 25.3 10 Norte 18 Nordeste 0 -- -- 38
2019-07-31 11:00:00 22.7 9 Nordeste 16 Nordeste 0 -- -- 43
2019-07-31 10:00:00 19.4 12 Nordeste 24 Nordeste 0 -- -- 51
2019-07-31 09:00:00 15.6 16 Nordeste 25 Nordeste 0 -- -- 61
2019-07-31 08:00:00 12.2 14 Nordeste 25 Nordeste 0 -- -- 73
2019-07-31 07:00:00 11.6 17 Nordeste 24 Nordeste 0 -- -- 75
2019-07-31 06:00:00 12.4 21 Nordeste 30 Nordeste 0 -- -- 72
2019-07-31 05:00:00 13 23 Norte 31 Norte 0 -- -- 70
2019-07-31 04:00:00 13.3 23 Norte 30 Norte 0 -- -- 68
2019-07-31 03:00:00 13.3 20 Norte 28 Norte 0 -- -- 68
2019-07-31 02:00:00 13.4 18 Norte 25 Norte 0 -- -- 69
2019-07-31 01:00:00 14.4 16 Nordeste 30 Norte 0 -- -- 64
2019-07-31 00:00:00 15.9 20 Norte 28 Norte 0 -- -- 58
2019-07-30 23:00:00 17.5 18 Norte 26 Norte 0 -- -- 48
2019-07-30 22:00:00 19.4 16 Norte 22 Norte 0 -- -- 36
2019-07-30 21:00:00 23 18 Norte 31 Norte 0 -- -- 30
2019-07-30 20:00:00 24.6 17 Norte 24 Norte 0 -- -- 28
2019-07-30 19:00:00 27.2 13 Norte 23 Norte 0 -- -- 25
2019-07-30 18:00:00 26.5 15 Norte 24 Norte 0 -- -- 28
2019-07-30 17:00:00 25.9 13 Norte 22 Norte 0 -- -- 31
2019-07-30 16:00:00 25.7 10 Norte 21 Nordeste 0 -- -- 32
2019-07-30 15:00:00 24.7 13 Norte 26 Norte 0 -- -- 35
2019-07-30 14:00:00 22.9 5 Sudeste 20 Norte 0 -- -- 38
2019-07-30 13:00:00 22 9 Nordeste 16 Nordeste 0 -- -- 37
2019-07-30 12:00:00 19.9 5 Noroeste 23 Nordeste 0 -- -- 49
2019-07-30 11:00:00 19.6 5 Norte 10 Sudeste 0 -- -- 52
2019-07-30 10:00:00 16.5 3 Sudeste 9 Oeste 0 -- -- 57
2019-07-30 09:00:00 12 3 Sudeste 5 Sudeste 0 -- -- 68
2019-07-30 08:00:00 5.8 2 Este 3 Este 0 -- -- 88
2019-07-30 07:00:00 3.2 3 Este 8 Este 0 -- -- 88
2019-07-30 06:00:00 5.7 0 Calma 4 Sudoeste 0 -- -- 86
2019-07-30 05:00:00 8.7 3 Oeste 8 Oeste 0 -- -- 76
2019-07-30 04:00:00 9.6 3 Oeste 6 Sudoeste 0 -- -- 73
2019-07-30 03:00:00 10.8 3 Oeste 8 Sudoeste 0 -- -- 65
2019-07-30 02:00:00 13.9 5 Oeste 23 Noroeste 0 -- -- 55
2019-07-30 01:00:00 15.8 7 Noroeste 19 Noroeste 0 -- -- 49
2019-07-30 00:00:00 17.5 10 Noroeste 18 Oeste 0 -- -- 41
2019-07-29 23:00:00 18.9 11 Oeste 18 Oeste 0 -- -- 37
2019-07-29 22:00:00 20.1 10 Oeste 25 Oeste 0 -- -- 37
2019-07-29 21:00:00 23.9 13 Oeste 30 Oeste 0 -- -- 29
2019-07-29 20:00:00 25.8 20 Oeste 34 Oeste 0 -- -- 28
2019-07-29 19:00:00 27.2 18 Oeste 37 Oeste 0 -- -- 27
2019-07-29 18:00:00 27.8 22 Oeste 41 Oeste 0 -- -- 23
2019-07-29 17:00:00 27.8 18 Oeste 37 Sudoeste 0 -- -- 31
2019-07-29 16:00:00 27.1 18 Sudoeste 58 Sudoeste 0 -- -- 36
2019-07-29 15:00:00 26.9 17 Oeste 32 Sudoeste 0 -- -- 36
2019-07-29 14:00:00 25.7 15 Oeste 31 Oeste 0 -- -- 40
2019-07-29 13:00:00 24.3 10 Sudoeste 25 Sudoeste 0 -- -- 44
2019-07-29 12:00:00 23.1 11 Oeste 22 Oeste 0 -- -- 41
2019-07-29 11:00:00 21.6 12 Sudoeste 20 Sudoeste 0 -- -- 46
2019-07-29 10:00:00 19.6 10 Sudoeste 19 Sudoeste 0 -- -- 51
2019-07-29 09:00:00 16.8 5 Sudoeste 9 Sudoeste 0 -- -- 56
2019-07-29 08:00:00 8.8 0 Calma 5 Sudeste 0 -- -- 65
2019-07-29 07:00:00 4.4 3 Este 4 Este 0 -- -- 78
2019-07-29 06:00:00 5.3 0 Calma 2 Sudeste 0 -- -- 72
2019-07-29 05:00:00 6.1 0 Calma 4 Sudeste 0 -- -- 70
2019-07-29 04:00:00 7.4 3 Sudeste 5 Este 0 -- -- 68
2019-07-29 03:00:00 8.3 2 Este 6 Este 0 -- -- 67
2019-07-29 02:00:00 9.5 5 Este 9 Este 0 -- -- 63
2019-07-29 01:00:00 10.5 6 Este 9 Este 0 -- -- 57
2019-07-29 00:00:00 11.6 5 Este 9 Este 0 -- -- 56
2019-07-28 23:00:00 13.6 5 Este 6 Sudeste 0 -- -- 54
2019-07-28 22:00:00 18.4 2 Oeste 10 Oeste 0 -- -- 42
2019-07-28 21:00:00 26.1 7 Oeste 16 Oeste 0 -- -- 25
2019-07-28 20:00:00 28.7 5 Oeste 19 Sudoeste 0 -- -- 20
2019-07-28 19:00:00 28.3 9 Noroeste 22 Noroeste 0 -- -- 21
2019-07-28 18:00:00 27.6 13 Noroeste 27 Oeste 0 -- -- 24
2019-07-28 17:00:00 27.2 14 Oeste 23 Oeste 0 -- -- 25
2019-07-28 16:00:00 25.9 13 Noroeste 24 Oeste 0 -- -- 29
2019-07-28 15:00:00 24.7 10 Noroeste 21 Sudoeste 0 -- -- 30
2019-07-28 14:00:00 24 7 Noroeste 15 Oeste 0 -- -- 36
2019-07-28 13:00:00 22.6 5 Noroeste 19 Nordeste 0 -- -- 40
2019-07-28 12:00:00 21.4 8 Norte 20 Norte 0 -- -- 43
2019-07-28 11:00:00 19.2 10 Nordeste 18 Nordeste 0 -- -- 54
2019-07-28 10:00:00 16.8 9 Este 17 Nordeste 0 -- -- 63
2019-07-28 09:00:00 14.9 0 Calma 6 Sudeste 0 -- -- 70
2019-07-28 08:00:00 9.6 5 Este 8 Este 0 -- -- 91
2019-07-28 07:00:00 7 4 Nordeste 8 Norte 0 -- -- 96
2019-07-28 06:00:00 8.9 5 Este 14 Norte 0 -- -- 93
2019-07-28 05:00:00 10.1 8 Norte 22 Norte 0 -- -- 91
2019-07-28 04:00:00 10.4 16 Norte 20 Norte 0 -- -- 91
2019-07-28 03:00:00 8.5 5 Nordeste 10 Nordeste 0 -- -- 92
2019-07-28 02:00:00 9.4 2 Este 10 Nordeste 0 -- -- 89
2019-07-28 01:00:00 12 8 Este 23 Nordeste 0 -- -- 82
2019-07-28 00:00:00 13.4 14 Nordeste 29 Nordeste 0 -- -- 76
2019-07-27 23:00:00 14.5 21 Norte 28 Norte 0 -- -- 73
2019-07-26 12:00:00 -- -- -- -- -- -- -- -- --
2019-07-26 11:00:00 -- -- -- -- -- -- -- -- --
2019-07-26 10:00:00 -- -- -- -- -- -- -- -- --
2019-07-26 09:00:00 18 10 Oeste 21 Oeste 0 -- -- 76
2019-07-26 08:00:00 16.5 4 Sudoeste 9 Oeste 0 -- -- 84
2019-07-26 07:00:00 16.5 4 Sudoeste 14 Oeste 0 -- -- 84
2019-07-26 06:00:00 17.9 7 Oeste 17 Oeste 0 -- -- 81
2019-07-26 05:00:00 18.6 10 Oeste 17 Oeste 0 -- -- 81
2019-07-26 04:00:00 20.1 11 Oeste 31 Oeste 0.2 -- -- 75
2019-07-26 03:00:00 21.6 8 Oeste 21 Oeste 0 -- -- 59
2019-07-26 02:00:00 21.3 4 Este 19 Norte 0 -- -- 55
2019-07-26 01:00:00 22.9 16 Norte 23 Noroeste 0 -- -- 50
2019-07-26 00:00:00 23.5 10 Noroeste 17 Noroeste 0 -- -- 47
2019-07-25 23:00:00 21.9 3 Oeste 12 Oeste 0 -- -- 41
2019-07-25 22:00:00 26.8 8 Sudoeste 20 Oeste 0 -- -- 30
2019-07-25 21:00:00 29.9 14 Oeste 36 Oeste 0 -- -- 27
2019-07-25 20:00:00 32.7 14 Oeste 36 Oeste 0 -- -- 24
2019-07-25 19:00:00 33.3 18 Oeste 40 Oeste 0 -- -- 25
2019-07-25 18:00:00 33 22 Oeste 41 Sudoeste 0 -- -- 24
2019-07-25 17:00:00 32.5 23 Oeste 45 Oeste 0 -- -- 26
2019-07-25 16:00:00 34.9 14 Sur 39 Sur 0 -- -- 22
2019-07-25 15:00:00 33.7 22 Sur 37 Sur 0 -- -- 20
2019-07-25 14:00:00 32.6 18 Sur 31 Sur 0 -- -- 27
2019-07-25 13:00:00 32.2 14 Sudoeste 28 Sur 0 -- -- 27
2019-07-25 12:00:00 31.4 13 Sudoeste 23 Oeste 0 -- -- 31
2019-07-25 11:00:00 30.3 6 Sur 13 Sur 0 -- -- 33
2019-07-25 10:00:00 27.6 2 Sudeste 5 Sudeste 0 -- -- 39
2019-07-25 09:00:00 22.5 0 Calma 4 Sudeste 0 -- -- 52
2019-07-25 08:00:00 14.8 2 Este 7 Nordeste 0 -- -- 75
2019-07-25 07:00:00 12.4 2 Este 4 Este 0 -- -- 81
2019-07-25 06:00:00 13.6 3 Nordeste 10 Este 0 -- -- 77
2019-07-25 05:00:00 14.1 0 Calma 6 Oeste 0 -- -- 71
2019-07-25 04:00:00 15.8 2 Oeste 6 Oeste 0 -- -- 67
2019-07-25 03:00:00 18.9 4 Oeste 10 Sudoeste 0 -- -- 58
2019-07-25 02:00:00 19.1 10 Este 14 Este 0 -- -- 53
2019-07-25 01:00:00 18.4 2 Sur 9 Este 0 -- -- 59
2019-07-25 00:00:00 18.9 4 Este 6 Sudeste 0 -- -- 59
2019-07-24 23:00:00 23.5 3 Norte 10 Oeste 0 -- -- 45
2019-07-24 22:00:00 27.3 0 Calma 15 Sur 0 -- -- 32
2019-07-24 21:00:00 32.7 6 Sudoeste 23 Sudoeste 0 -- -- 27
2019-07-24 20:00:00 33.7 14 Sudoeste 33 Sur 0 -- -- 24
2019-07-24 19:00:00 34.9 15 Sudoeste 32 Sudoeste 0 -- -- 22
2019-07-24 18:00:00 35.5 20 Sur 35 Sudoeste 0 -- -- 22
2019-07-24 17:00:00 36 19 Sudoeste 37 Sur 0 -- -- 22
2019-07-24 16:00:00 35.6 20 Sur 57 Sur 0 -- -- 23
2019-07-24 15:00:00 35 15 Sur 35 Sur 0 -- -- 23
2019-07-24 14:00:00 34.4 14 Sudoeste 32 Sur 0 -- -- 25
2019-07-24 13:00:00 34 11 Sur 23 Sur 0 -- -- 28
2019-07-24 12:00:00 33.1 6 Sudoeste 20 Sudoeste 0 -- -- 29
2019-07-24 11:00:00 30.6 6 Sur 18 Oeste 0 -- -- 33
2019-07-24 10:00:00 28.4 2 Sudeste 8 Este 0 -- -- 42
2019-07-24 09:00:00 22.6 3 Este 8 Este 0 -- -- 64
2019-07-24 08:00:00 14.6 5 Este 8 Este 0 -- -- 88
2019-07-24 07:00:00 13.4 4 Este 10 Este 0 -- -- 89
2019-07-24 06:00:00 15.2 8 Este 12 Nordeste 0 -- -- 83
2019-07-24 05:00:00 18.2 9 Nordeste 12 Nordeste 0 -- -- 72
2019-07-24 04:00:00 18.4 10 Este 15 Este 0 -- -- 73
2019-07-24 03:00:00 19.1 6 Este 13 Nordeste 0 -- -- 75
2019-07-24 02:00:00 20.2 7 Este 22 Este 0 -- -- 70
2019-07-24 01:00:00 21.2 12 Este 31 Nordeste 0 -- -- 65
2019-07-24 00:00:00 22.2 6 Oeste 23 Oeste 0 -- -- 60
2019-07-23 23:00:00 22.7 10 Noroeste 17 Noroeste 0 -- -- 60
2019-07-23 22:00:00 23.1 9 Noroeste 31 Sudeste 0.6 -- -- 62
2019-07-23 21:00:00 26.5 21 Norte 36 Noroeste 0 -- -- 45
2019-07-23 20:00:00 32.9 21 Oeste 36 Oeste 0 -- -- 29
2019-07-23 19:00:00 36.2 19 Sur 38 Sur 0 -- -- 22
2019-07-23 18:00:00 35.1 14 Sudoeste 27 Sur 0 -- -- 26
2019-07-23 17:00:00 32.4 9 Oeste 25 Sur 0 -- -- 37
2019-07-23 16:00:00 34.9 13 Sur 33 Sudeste 0 -- -- 26
2019-07-23 15:00:00 34.7 14 Este 25 Este 0 -- -- 29
2019-07-23 14:00:00 32.4 6 Este 24 Sudoeste 0 -- -- 34
2019-07-23 13:00:00 30.2 16 Sudoeste 28 Sudoeste 0 -- -- 37
2019-07-23 12:00:00 28.9 8 Sudeste 27 Este 0 -- -- 43
2019-07-23 11:00:00 25.6 23 Este 30 Este 0 -- -- 50
2019-07-23 10:00:00 23 6 Este 22 Sur 0 -- -- 57
2019-07-23 09:00:00 21.5 14 Norte 30 Sudoeste 0 -- -- 61
2019-07-23 08:00:00 21.9 15 Oeste 28 Sudoeste 0.2 -- -- 57
2019-07-23 07:00:00 16.6 5 Sudeste 13 Sudoeste 0 -- -- 78
2019-07-23 06:00:00 17.2 9 Este 17 Este 0 -- -- 70
2019-07-23 05:00:00 15.8 11 Este 14 Este 0 -- -- 77
2019-07-23 04:00:00 17.6 8 Este 13 Este 0 -- -- 70
2019-07-23 03:00:00 18.7 2 Sudeste 15 Nordeste 0 -- -- 67
2019-07-23 02:00:00 20.8 11 Norte 20 Oeste 0 -- -- 56
2019-07-23 01:00:00 21.4 8 Nordeste 28 Norte 0 -- -- 52
2019-07-23 00:00:00 22.4 17 Norte 27 Norte 0 -- -- 53
2019-07-22 23:00:00 18.9 3 Este 9 Este 0 -- -- 75
2019-07-22 22:00:00 21.3 0 Calma 14 Este 0 -- -- 67
2019-07-22 21:00:00 25 2 Este 13 Este 0 -- -- 54
2019-07-22 20:00:00 27.2 14 Noroeste 25 Oeste 0 -- -- 47
2019-07-22 19:00:00 27 5 Sudeste 23 Norte 0.2 -- -- 54
2019-07-22 18:00:00 27.5 13 Noroeste 59 Oeste 0.6 -- -- 49
2019-07-22 17:00:00 32 20 Nordeste 34 Nordeste 0.2 -- -- 37
2019-07-22 16:00:00 36.8 14 Nordeste 30 Norte 0 -- -- 23
2019-07-22 15:00:00 37.4 25 Nordeste 36 Nordeste 0 -- -- 22
2019-07-22 14:00:00 37.9 9 Noroeste 19 Oeste 0 -- -- 22
2019-07-22 13:00:00 36.1 6 Este 15 Nordeste 0 -- -- 23
2019-07-22 12:00:00 35.8 6 Nordeste 13 Nordeste 0 -- -- 24
2019-07-22 11:00:00 32.7 7 Este 15 Nordeste 0 -- -- 29
2019-07-22 10:00:00 29.8 9 Este 15 Este 0 -- -- 34
2019-07-22 09:00:00 25.3 3 Este 4 Este 0 -- -- 51
2019-07-22 08:00:00 18.5 3 Sudeste 10 Nordeste 0 -- -- 73
2019-07-22 07:00:00 15.9 6 Nordeste 10 Nordeste 0 -- -- 78
2019-07-22 06:00:00 17.6 7 Nordeste 10 Nordeste 0 -- -- 75
2019-07-22 05:00:00 17 5 Este 8 Este 0 -- -- 75
2019-07-22 04:00:00 18 4 Este 7 Este 0 -- -- 73
2019-07-22 03:00:00 20.9 3 Nordeste 12 Este 0 -- -- 64
2019-07-22 02:00:00 23.2 13 Nordeste 19 Nordeste 0 -- -- 58
2019-07-22 01:00:00 22.2 6 Este 13 Nordeste 0 -- -- 54
2019-07-22 00:00:00 24.7 12 Nordeste 18 Nordeste 0 -- -- 47
2019-07-21 23:00:00 26 13 Norte 18 Nordeste 0 -- -- 34
2019-07-21 22:00:00 28.4 12 Norte 13 Norte 0 -- -- 31
2019-07-21 21:00:00 34.1 8 Noroeste 23 Nordeste 0 -- -- 23
2019-07-21 20:00:00 36.3 10 Nordeste 29 Este 0 -- -- 23
2019-07-21 19:00:00 37.1 15 Norte 27 Norte 0 -- -- 22
2019-07-21 18:00:00 36.6 14 Oeste 24 Oeste 0 -- -- 23
2019-07-21 17:00:00 36.2 15 Oeste 24 Noroeste 0 -- -- 23
2019-07-21 16:00:00 35.9 9 Noroeste 26 Oeste 0 -- -- 22
2019-07-21 15:00:00 35.5 5 Sudoeste 21 Oeste 0 -- -- 23
2019-07-21 14:00:00 34.8 10 Noroeste 17 Noroeste 0 -- -- 24
2019-07-21 13:00:00 33.2 4 Sudoeste 13 Oeste 0 -- -- 29
2019-07-21 12:00:00 29.6 5 Sur 10 Noroeste 0 -- -- 40
2019-07-21 11:00:00 26.8 4 Noroeste 8 Norte 0 -- -- 49
2019-07-21 10:00:00 22.6 5 Este 12 Este 0 -- -- 63
2019-07-21 09:00:00 18.7 8 Este 11 Este 0 -- -- 78
2019-07-21 08:00:00 13.8 4 Nordeste 6 Nordeste 0 -- -- 93
2019-07-21 07:00:00 13.8 4 Nordeste 9 Oeste 0 -- -- 92
2019-07-21 06:00:00 14.1 3 Norte 11 Este 0 -- -- 92
2019-07-21 05:00:00 16.1 5 Este 16 Este 0 -- -- 86
2019-07-21 04:00:00 16.7 9 Este 13 Nordeste 0 -- -- 84
2019-07-21 03:00:00 17.6 10 Este 21 Nordeste 0 -- -- 79
2019-07-21 02:00:00 19.6 8 Norte 21 Norte 0 -- -- 71
2019-07-21 01:00:00 21.5 9 Norte 17 Norte 0 -- -- 64
2019-07-21 00:00:00 23.2 13 Norte 21 Norte 0 -- -- 55
2019-07-20 23:00:00 20.2 3 Sur 11 Noroeste 0 -- -- 45
2019-07-20 22:00:00 27 6 Noroeste 22 Oeste 0 -- -- 27
2019-07-20 21:00:00 31.5 13 Oeste 22 Noroeste 0 -- -- 26
2019-07-20 20:00:00 33.5 13 Oeste 30 Oeste 0 -- -- 26
2019-07-20 19:00:00 34.2 15 Oeste 38 Oeste 0 -- -- 25
2019-07-20 18:00:00 34.7 15 Oeste 36 Oeste 0 -- -- 24
2019-07-20 17:00:00 34.4 15 Oeste 35 Oeste 0 -- -- 26
2019-07-20 16:00:00 34.2 14 Sudoeste 31 Oeste 0 -- -- 25
2019-07-20 15:00:00 33.1 9 Sudoeste 29 Oeste 0 -- -- 30
2019-07-20 14:00:00 32.3 9 Oeste 26 Sudoeste 0 -- -- 33
2019-07-20 13:00:00 30.4 10 Noroeste 18 Noroeste 0 -- -- 35
2019-07-20 12:00:00 29.1 9 Noroeste 17 Sudoeste 0 -- -- 38
2019-07-20 11:00:00 26.7 8 Oeste 12 Oeste 0 -- -- 43
2019-07-20 10:00:00 24.4 4 Oeste 10 Sudoeste 0 -- -- 47
2019-07-20 09:00:00 22.1 0 Calma 3 Sur 0 -- -- 48
2019-07-20 08:00:00 13.3 3 Sudeste 5 Sur 0 -- -- 73
2019-07-20 07:00:00 10.6 4 Este 6 Este 0 -- -- 82
2019-07-20 06:00:00 11.4 3 Sudeste 5 Sudeste 0 -- -- 78
2019-07-20 05:00:00 13.3 0 Calma 12 Este 0 -- -- 72
2019-07-20 04:00:00 13.4 0 Calma 4 Este 0 -- -- 69
2019-07-20 03:00:00 14.9 3 Este 5 Nordeste 0 -- -- 65
2019-07-20 02:00:00 16.2 0 Calma 4 Sudoeste 0 -- -- 63
2019-07-20 01:00:00 18.8 3 Nordeste 10 Este 0 -- -- 53
2019-07-20 00:00:00 20 5 Sudeste 6 Este 0 -- -- 56
2019-07-19 23:00:00 21.9 4 Sudeste 9 Oeste 0 -- -- 49
2019-07-19 22:00:00 27.2 5 Oeste 13 Oeste 0 -- -- 34
2019-07-19 21:00:00 32.3 10 Oeste 21 Oeste 0 -- -- 26
2019-07-19 20:00:00 34.2 13 Oeste 29 Oeste 0 -- -- 25
2019-07-19 19:00:00 34.3 15 Oeste 27 Oeste 0 -- -- 25
2019-07-19 18:00:00 34.2 13 Oeste 22 Oeste 0 -- -- 25
2019-07-19 17:00:00 34.4 8 Noroeste 28 Oeste 0 -- -- 23
2019-07-19 16:00:00 35.2 5 Nordeste 22 Oeste 0 -- -- 23
2019-07-19 15:00:00 34.3 8 Sudoeste 32 Oeste 0 -- -- 24
2019-07-19 14:00:00 34.4 12 Sudeste 27 Sudoeste 0 -- -- 24
2019-07-19 13:00:00 33.4 8 Norte 16 Noroeste 0 -- -- 24
2019-07-19 12:00:00 31.1 5 Sudoeste 17 Sur 0 -- -- 25
2019-07-19 11:00:00 30 0 Calma 10 Nordeste 0 -- -- 34
2019-07-19 10:00:00 24.2 7 Este 12 Sudeste 0 -- -- 45
2019-07-19 09:00:00 19.2 6 Este 9 Este 0 -- -- 60
2019-07-19 08:00:00 14.8 5 Este 10 Este 0 -- -- 75
2019-07-19 07:00:00 11.1 6 Este 9 Este 0 -- -- 83
2019-07-19 06:00:00 13.4 7 Este 16 Este 0 -- -- 74
2019-07-19 05:00:00 16.1 9 Nordeste 17 Nordeste 0 -- -- 65
2019-07-19 04:00:00 16.7 8 Este 17 Nordeste 0 -- -- 63
2019-07-19 03:00:00 17.2 8 Este 20 Norte 0 -- -- 61
2019-07-19 02:00:00 17.9 10 Nordeste 19 Norte 0 -- -- 58
2019-07-19 01:00:00 19.1 9 Este 18 Norte 0 -- -- 53
2019-07-19 00:00:00 20.9 16 Norte 23 Norte 0 -- -- 48